createdAt,value
2023-11-16T00:00:53.249Z,8.77
2023-11-16T00:03:30.705Z,8.92
2023-11-16T00:06:02.293Z,9.28
2023-11-16T00:08:33.777Z,9.15
2023-11-16T00:11:02.589Z,9.03
2023-11-16T00:13:32.137Z,9.15
2023-11-16T00:16:02.799Z,9.46
2023-11-16T00:18:33.820Z,9.37
2023-11-16T00:21:04.036Z,9.09
2023-11-16T00:23:39.492Z,9.30
2023-11-16T00:26:20.688Z,9.09
2023-11-16T00:28:50.784Z,9.12
2023-11-16T00:31:20.289Z,9.28
2023-11-16T00:33:54.079Z,8.86
2023-11-16T00:36:26.610Z,9.22
2023-11-16T00:39:00.462Z,9.21
2023-11-16T00:41:32.563Z,9.44
2023-11-16T00:44:04.413Z,9.32
2023-11-16T00:46:42.576Z,9.10
2023-11-16T00:49:13.001Z,9.06
2023-11-16T00:51:41.124Z,9.16
2023-11-16T00:54:10.874Z,9.14
2023-11-16T00:56:47.135Z,9.46
2023-11-16T00:59:16.335Z,9.29
2023-11-16T01:01:46.990Z,8.95
2023-11-16T01:04:17.178Z,8.97
2023-11-16T01:06:49.628Z,9.06
2023-11-16T01:09:20.688Z,9.18
2023-11-16T01:11:53.815Z,9.44
2023-11-16T01:14:22.102Z,8.92
2023-11-16T01:17:00.351Z,9.04
2023-11-16T01:19:30.374Z,8.85
2023-11-16T01:22:02.013Z,8.99
2023-11-16T01:24:40.426Z,8.95
2023-11-16T01:27:23.391Z,8.99
2023-11-16T01:29:56.893Z,9.26
2023-11-16T01:32:26.515Z,9.11
2023-11-16T01:34:55.086Z,9.10
2023-11-16T01:40:10.908Z,9.12
2023-11-16T01:42:38.465Z,8.88
2023-11-16T01:45:08.513Z,8.85
2023-11-16T01:47:40.363Z,8.56
2023-11-16T01:50:09.358Z,8.85
2023-11-16T01:52:39.642Z,8.67
2023-11-16T01:55:16.845Z,8.80
2023-11-16T01:57:48.761Z,8.67
2023-11-16T02:00:25.083Z,8.72
2023-11-16T02:02:57.898Z,8.77
2023-11-16T02:05:28.684Z,8.61
2023-11-16T02:08:01.592Z,8.57
2023-11-16T02:10:36.678Z,8.78
2023-11-16T02:13:13.821Z,8.87
2023-11-16T02:15:46.511Z,8.90
2023-11-16T02:18:17.423Z,8.76
2023-11-16T02:20:48.454Z,8.91
2023-11-16T02:23:23.077Z,8.28
2023-11-16T02:26:00.691Z,8.69
2023-11-16T02:28:40.015Z,8.42
2023-11-16T02:31:10.847Z,8.54
2023-11-16T02:33:44.500Z,8.64
2023-11-16T02:36:20.762Z,8.35
2023-11-16T02:41:34.752Z,8.15
2023-11-16T02:44:12.416Z,8.50
2023-11-16T02:49:31.720Z,8.43
2023-11-16T02:52:00.402Z,8.48
2023-11-16T02:54:32.348Z,8.08
2023-11-16T02:57:00.988Z,8.41
2023-11-16T02:59:38.036Z,8.10
2023-11-16T03:02:09.648Z,8.42
2023-11-16T03:04:39.620Z,8.40
2023-11-16T03:07:26.842Z,8.20
2023-11-16T03:10:03.936Z,8.23
2023-11-16T03:12:33.980Z,8.11
2023-11-16T03:15:00.978Z,8.40
2023-11-16T03:17:33.867Z,8.05
2023-11-16T03:20:03.142Z,7.80
2023-11-16T03:22:32.332Z,8.23
2023-11-16T03:25:10.082Z,8.06
2023-11-16T03:27:39.933Z,7.39
2023-11-16T03:30:11.105Z,7.76
2023-11-16T03:32:40.909Z,7.30
2023-11-16T03:35:11.523Z,7.46
2023-11-16T03:37:40.177Z,7.20
2023-11-16T03:40:08.042Z,7.44
2023-11-16T03:42:39.003Z,7.55
2023-11-16T03:45:08.850Z,7.38
2023-11-16T03:47:37.784Z,7.72
2023-11-16T03:50:06.813Z,7.02
2023-11-16T03:52:40.018Z,6.86
2023-11-16T03:55:11.270Z,7.21
2023-11-16T03:57:38.543Z,7.11
2023-11-16T04:00:07.285Z,6.99
2023-11-16T04:02:46.732Z,6.99
2023-11-16T04:05:17.651Z,6.93
2023-11-16T04:07:45.599Z,7.22
2023-11-16T04:10:16.643Z,7.16
2023-11-16T04:12:46.827Z,6.79
2023-11-16T04:15:16.906Z,7.11
2023-11-16T04:17:50.091Z,6.74
2023-11-16T04:20:25.073Z,6.97
2023-11-16T04:22:52.438Z,7.02
2023-11-16T04:25:25.224Z,6.57
2023-11-16T04:28:03.385Z,7.11
2023-11-16T04:30:32.950Z,7.01
2023-11-16T04:33:03.451Z,6.91
2023-11-16T04:35:36.731Z,6.72
2023-11-16T04:38:05.604Z,6.60
2023-11-16T04:40:39.860Z,6.55
2023-11-16T04:43:08.725Z,6.53
2023-11-16T04:45:45.243Z,6.63
2023-11-16T04:48:16.499Z,6.77
2023-11-16T04:53:27.655Z,6.41
2023-11-16T04:56:07.732Z,6.28
2023-11-16T04:58:38.471Z,6.40
2023-11-16T05:01:07.781Z,6.27
2023-11-16T05:03:36.564Z,5.93
2023-11-16T05:06:13.800Z,6.26
2023-11-16T05:08:43.195Z,6.06
2023-11-16T05:11:12.860Z,6.08
2023-11-16T05:13:48.277Z,6.25
2023-11-16T05:16:19.581Z,6.23
2023-11-16T05:18:47.258Z,6.57
2023-11-16T05:24:10.129Z,6.18
2023-11-16T05:26:46.409Z,6.11
2023-11-16T05:29:15.133Z,6.03
2023-11-16T05:31:45.192Z,6.09
2023-11-16T05:34:17.565Z,5.48
2023-11-16T05:36:48.479Z,5.55
2023-11-16T05:39:21.435Z,5.71
2023-11-16T05:41:52.402Z,5.52
2023-11-16T05:44:24.317Z,5.76
2023-11-16T05:46:53.619Z,5.91
2023-11-16T05:49:25.867Z,6.12
2023-11-16T05:51:55.334Z,6.30
2023-11-16T05:54:26.186Z,5.91
2023-11-16T05:57:00.239Z,5.55
2023-11-16T05:59:31.486Z,5.71
2023-11-16T06:02:00.622Z,5.32
2023-11-16T06:04:31.686Z,5.12
2023-11-16T06:09:55.674Z,5.45
2023-11-16T06:12:25.456Z,5.90
2023-11-16T06:14:59.105Z,5.01
2023-11-16T06:17:35.584Z,5.95
2023-11-16T06:22:49.856Z,5.56
2023-11-16T06:25:23.518Z,5.79
2023-11-16T06:27:52.884Z,5.91
2023-11-16T06:30:24.231Z,6.01
2023-11-16T06:32:57.864Z,6.03
2023-11-16T06:35:28.201Z,5.77
2023-11-16T06:40:47.858Z,6.08
2023-11-16T06:43:31.496Z,5.54
2023-11-16T06:46:14.172Z,5.69
2023-11-16T06:48:49.182Z,5.46
2023-11-16T06:51:22.070Z,5.92
2023-11-16T06:53:59.280Z,5.50
2023-11-16T06:59:14.715Z,6.00
2023-11-16T07:01:47.728Z,5.92
2023-11-16T07:04:28.204Z,6.21
2023-11-16T07:07:02.235Z,5.45
2023-11-16T07:09:31.428Z,5.84
2023-11-16T07:12:06.840Z,5.57
2023-11-16T07:14:43.931Z,5.47
2023-11-16T07:17:23.195Z,5.42
2023-11-16T07:19:57.740Z,5.84
2023-11-16T07:22:34.735Z,5.88
2023-11-16T07:25:21.392Z,5.70
2023-11-16T07:28:00.945Z,5.79
2023-11-16T07:30:31.078Z,5.78
2023-11-16T07:33:06.658Z,5.37
2023-11-16T07:35:39.800Z,5.89
2023-11-16T07:38:13.416Z,5.50
2023-11-16T07:40:55.209Z,5.98
2023-11-16T07:43:38.288Z,6.22
2023-11-16T07:46:18.372Z,5.97
2023-11-16T07:51:32.287Z,6.01
2023-11-16T07:54:23.684Z,6.09
2023-11-16T07:56:57.523Z,5.93
2023-11-16T07:59:33.540Z,5.25
2023-11-16T08:02:04.478Z,5.68
2023-11-16T08:04:36.595Z,5.84
2023-11-16T08:07:12.458Z,6.04
2023-11-16T08:09:55.401Z,6.06
2023-11-16T08:12:30.970Z,5.39
2023-11-16T08:15:03.048Z,5.43
2023-11-16T08:20:23.196Z,5.79
2023-11-16T08:23:00.966Z,5.50
2023-11-16T08:25:51.871Z,5.43
2023-11-16T08:28:24.608Z,5.43
2023-11-16T08:31:00.494Z,5.62
2023-11-16T08:33:29.462Z,5.41
2023-11-16T08:36:01.654Z,5.66
2023-11-16T08:38:35.610Z,5.49
2023-11-16T08:43:59.671Z,6.16
2023-11-16T08:46:39.932Z,5.74
2023-11-16T08:49:10.999Z,5.83
2023-11-16T08:51:47.702Z,5.98
2023-11-16T08:54:25.411Z,5.77
2023-11-16T08:56:54.905Z,5.58
2023-11-16T08:59:25.956Z,5.75
2023-11-16T09:02:15.024Z,5.43
2023-11-16T09:04:52.049Z,6.02
2023-11-16T09:07:29.684Z,5.82
2023-11-16T09:10:09.506Z,6.15
2023-11-16T09:12:47.120Z,5.74
2023-11-16T09:15:25.784Z,6.06
2023-11-16T09:18:03.534Z,5.82
2023-11-16T09:21:02.501Z,5.44
2023-11-16T09:23:31.254Z,5.53
2023-11-16T09:26:21.285Z,6.34
2023-11-16T09:29:01.605Z,5.67
2023-11-16T09:31:49.126Z,5.95
2023-11-16T09:34:24.782Z,6.31
2023-11-16T09:39:42.342Z,5.53
2023-11-16T09:42:16.212Z,6.06
2023-11-16T09:44:57.094Z,5.87
2023-11-16T09:47:28.204Z,6.01
2023-11-16T09:50:30.518Z,6.03
2023-11-16T09:53:15.873Z,6.40
2023-11-16T09:55:57.281Z,5.91
2023-11-16T10:01:26.281Z,6.37
2023-11-16T10:04:03.802Z,6.46
2023-11-16T10:06:34.319Z,6.72
2023-11-16T10:09:24.345Z,6.18
2023-11-16T10:11:53.092Z,6.02
2023-11-16T10:14:33.340Z,5.97
2023-11-16T10:17:03.745Z,6.06
2023-11-16T10:19:36.342Z,6.18
2023-11-16T10:22:19.509Z,6.07
2023-11-16T10:24:48.968Z,6.02
2023-11-16T10:27:23.792Z,5.86
2023-11-16T10:29:56.522Z,6.33
2023-11-16T10:32:34.340Z,6.00
2023-11-16T10:35:05.723Z,6.13
2023-11-16T10:37:42.220Z,5.85
2023-11-16T10:40:17.949Z,6.61
2023-11-16T10:42:54.207Z,5.75
2023-11-16T10:45:32.230Z,6.00
2023-11-16T10:48:06.086Z,6.11
2023-11-16T10:50:40.336Z,5.98
2023-11-16T10:53:35.329Z,6.24
2023-11-16T10:56:13.386Z,6.61
2023-11-16T10:58:42.959Z,6.30
2023-11-16T11:01:23.806Z,6.02
2023-11-16T11:04:04.169Z,6.01
2023-11-16T11:06:37.718Z,6.12
2023-11-16T11:11:55.958Z,6.71
2023-11-16T11:14:33.597Z,6.39
2023-11-16T11:17:21.467Z,6.14
2023-11-16T11:20:01.057Z,6.06
2023-11-16T11:22:41.029Z,6.62
2023-11-16T11:25:38.232Z,6.17
2023-11-16T11:28:13.507Z,6.04
2023-11-16T11:31:02.774Z,6.87
2023-11-16T11:34:00.679Z,6.86
2023-11-16T11:36:36.182Z,6.31
2023-11-16T11:39:21.386Z,6.83
2023-11-16T11:44:58.576Z,6.69
2023-11-16T11:47:35.128Z,6.93
2023-11-16T11:50:04.155Z,6.64
2023-11-16T11:52:33.902Z,6.34
2023-11-16T11:55:08.327Z,6.89
2023-11-16T11:57:44.541Z,6.57
2023-11-16T12:00:26.500Z,6.57
2023-11-16T12:02:58.970Z,6.63
2023-11-16T12:05:36.156Z,6.29
2023-11-16T12:11:04.321Z,6.24
2023-11-16T12:16:18.178Z,7.07
2023-11-16T12:18:50.745Z,6.80
2023-11-16T12:21:31.925Z,6.28
2023-11-16T12:24:04.732Z,6.30
2023-11-16T12:26:35.919Z,6.82
2023-11-16T12:29:29.013Z,7.04
2023-11-16T12:32:01.928Z,6.94
2023-11-16T12:34:32.739Z,6.79
2023-11-16T12:37:04.786Z,6.64
2023-11-16T12:39:41.911Z,6.70
2023-11-16T12:42:15.391Z,6.79
2023-11-16T12:44:45.378Z,6.59
2023-11-16T12:50:06.029Z,6.17
2023-11-16T12:52:51.388Z,6.35
2023-11-16T12:55:28.797Z,7.00
2023-11-16T12:58:06.057Z,7.07
2023-11-16T13:00:36.460Z,6.38
2023-11-16T13:03:15.057Z,7.07
2023-11-16T13:05:47.288Z,6.69
2023-11-16T13:08:29.037Z,7.08
2023-11-16T13:10:59.902Z,6.65
2023-11-16T13:16:21.887Z,7.04
2023-11-16T13:18:58.444Z,6.78
2023-11-16T13:21:32.838Z,6.51
2023-11-16T13:24:08.417Z,6.52
2023-11-16T13:26:46.951Z,6.30
2023-11-16T13:29:16.632Z,6.45
2023-11-16T13:34:28.985Z,6.65
2023-11-16T13:36:58.409Z,6.68
2023-11-16T13:39:37.427Z,7.04
2023-11-16T13:42:08.342Z,6.51
2023-11-16T13:47:38.645Z,6.74
2023-11-16T13:50:12.764Z,6.35
2023-11-16T13:52:55.359Z,6.94
2023-11-16T13:55:35.775Z,6.83
2023-11-16T13:58:04.605Z,6.33
2023-11-16T14:00:35.333Z,6.46
2023-11-16T14:03:02.575Z,6.84
2023-11-16T14:05:38.700Z,6.86
2023-11-16T14:08:10.633Z,6.51
2023-11-16T14:10:42.776Z,6.38
2023-11-16T14:13:15.253Z,6.40
2023-11-16T14:15:56.808Z,6.33
2023-11-16T14:18:37.282Z,6.63
2023-11-16T14:21:10.748Z,6.30
2023-11-16T14:26:25.784Z,6.13
2023-11-16T14:28:58.888Z,5.98
2023-11-16T14:31:35.076Z,6.08
2023-11-16T14:34:06.710Z,6.38
2023-11-16T14:36:34.723Z,6.20
2023-11-16T14:39:20.666Z,6.65
2023-11-16T14:41:51.669Z,5.82
2023-11-16T14:44:36.655Z,6.24
2023-11-16T14:47:11.285Z,6.28
2023-11-16T14:49:43.979Z,6.24
2023-11-16T14:52:38.897Z,6.07
2023-11-16T14:58:03.560Z,6.02
2023-11-16T15:01:35.966Z,6.84
2023-11-16T15:06:32.524Z,6.47
2023-11-16T15:08:59.310Z,6.80
2023-11-16T15:11:27.209Z,6.45
2023-11-16T15:13:59.264Z,6.65
2023-11-16T15:16:41.826Z,6.71
2023-11-16T15:19:09.161Z,6.81
2023-11-16T15:21:36.055Z,6.57
2023-11-16T15:24:03.421Z,6.62
2023-11-16T15:26:41.178Z,5.95
2023-11-16T15:29:15.361Z,6.56
2023-11-16T15:31:42.608Z,5.83
2023-11-16T15:34:10.380Z,6.36
2023-11-16T15:36:37.887Z,6.52
2023-11-16T15:39:07.778Z,6.34
2023-11-16T15:41:35.387Z,6.41
2023-11-16T15:44:02.650Z,6.35
2023-11-16T15:46:31.000Z,5.68
2023-11-16T15:48:58.904Z,6.58
2023-11-16T15:51:27.575Z,5.47
2023-11-16T15:53:55.422Z,6.50
2023-11-16T15:56:24.301Z,6.35
2023-11-16T15:58:51.901Z,6.48
2023-11-16T16:01:20.780Z,6.42
2023-11-16T16:03:54.088Z,6.24
2023-11-16T16:06:25.728Z,6.54
2023-11-16T16:08:53.785Z,6.57
2023-11-16T16:11:23.115Z,6.50
2023-11-16T16:13:52.652Z,5.75
2023-11-16T16:16:19.985Z,6.41
2023-11-16T16:18:46.996Z,6.09
2023-11-16T16:21:15.583Z,6.56
2023-11-16T16:23:44.005Z,6.50
2023-11-16T16:26:14.908Z,6.51
2023-11-16T16:28:46.710Z,6.61
2023-11-16T16:31:21.116Z,6.54
2023-11-16T16:33:48.482Z,6.28
2023-11-16T16:36:15.474Z,6.36
2023-11-16T16:38:42.355Z,5.95
2023-11-16T16:41:12.328Z,6.09
2023-11-16T16:43:41.152Z,6.24
2023-11-16T16:46:19.713Z,6.34
2023-11-16T16:48:47.127Z,6.13
2023-11-16T16:51:14.053Z,5.83
2023-11-16T16:53:41.839Z,6.25
2023-11-16T16:56:11.417Z,6.37
2023-11-16T16:58:39.930Z,6.41
2023-11-16T17:01:07.398Z,6.39
2023-11-16T17:03:34.854Z,5.93
2023-11-16T17:06:01.888Z,5.92
2023-11-16T17:08:29.197Z,6.00
2023-11-16T17:10:56.099Z,6.16
2023-11-16T17:13:22.998Z,6.01
2023-11-16T17:15:49.871Z,5.49
2023-11-16T17:18:17.362Z,5.83
2023-11-16T17:20:44.561Z,6.08
2023-11-16T17:23:11.633Z,6.02
2023-11-16T17:25:41.146Z,6.16
2023-11-16T17:28:08.195Z,6.13
2023-11-16T17:30:35.381Z,5.41
2023-11-16T17:33:04.038Z,6.12
2023-11-16T17:35:31.028Z,6.13
2023-11-16T17:37:58.036Z,6.12
2023-11-16T17:40:27.707Z,5.92
2023-11-16T17:42:54.885Z,6.10
2023-11-16T17:45:25.530Z,6.15
2023-11-16T17:47:54.457Z,5.44
2023-11-16T17:50:22.234Z,6.17
2023-11-16T17:52:52.306Z,6.00
2023-11-16T17:55:21.019Z,5.91
2023-11-16T17:57:49.349Z,5.63
2023-11-16T18:00:16.773Z,5.98
2023-11-16T18:02:44.178Z,6.18
2023-11-16T18:05:16.074Z,5.95
2023-11-16T18:07:43.638Z,6.07
2023-11-16T18:10:11.416Z,6.11
2023-11-16T18:12:41.382Z,5.75
2023-11-16T18:15:08.791Z,6.05
2023-11-16T18:17:36.345Z,6.18
2023-11-16T18:20:07.269Z,5.79
2023-11-16T18:22:34.467Z,6.05
2023-11-16T18:25:01.621Z,6.07
2023-11-16T18:27:30.508Z,6.12
2023-11-16T18:29:58.017Z,5.72
2023-11-16T18:32:26.408Z,5.20
2023-11-16T18:34:54.684Z,6.16
2023-11-16T18:37:21.961Z,6.09
2023-11-16T18:39:49.483Z,6.07
2023-11-16T18:42:16.658Z,5.79
2023-11-16T18:44:44.050Z,5.87
2023-11-16T18:47:11.998Z,5.98
2023-11-16T18:49:38.975Z,5.91
2023-11-16T18:52:06.162Z,5.79
2023-11-16T18:54:33.202Z,6.00
2023-11-16T18:57:02.427Z,5.99
2023-11-16T18:59:29.958Z,5.73
2023-11-16T19:01:57.664Z,5.28
2023-11-16T19:04:24.635Z,5.97
2023-11-16T19:06:52.097Z,6.03
2023-11-16T19:09:22.601Z,5.84
2023-11-16T19:11:52.379Z,5.96
2023-11-16T19:14:23.274Z,5.85
2023-11-16T19:16:50.556Z,5.32
2023-11-16T19:19:17.546Z,5.36
2023-11-16T19:21:45.761Z,5.72
2023-11-16T19:24:14.157Z,5.83
2023-11-16T19:26:44.069Z,5.60
2023-11-16T19:29:13.086Z,5.58
2023-11-16T19:31:40.289Z,5.55
2023-11-16T19:34:07.785Z,5.68
2023-11-16T19:36:36.369Z,5.65
2023-11-16T19:39:08.857Z,5.89
2023-11-16T19:41:44.852Z,5.86
2023-11-16T19:44:13.796Z,5.43
2023-11-16T19:46:42.067Z,5.83
2023-11-16T19:49:10.195Z,5.55
2023-11-16T19:51:38.908Z,5.37
2023-11-16T19:54:06.370Z,5.31
2023-11-16T19:56:33.388Z,5.71
2023-11-16T19:59:00.374Z,5.47
2023-11-16T20:01:29.975Z,5.54
2023-11-16T20:03:57.422Z,5.68
2023-11-16T20:06:24.442Z,5.68
2023-11-16T20:08:51.401Z,5.46
2023-11-16T20:11:18.476Z,5.56
2023-11-16T20:13:47.093Z,5.66
2023-11-16T20:16:15.932Z,5.65
2023-11-16T20:18:45.779Z,5.41
2023-11-16T20:21:13.424Z,5.51
2023-11-16T20:23:42.438Z,5.74
2023-11-16T20:26:12.755Z,5.49
2023-11-16T20:28:40.026Z,5.39
2023-11-16T20:31:07.108Z,5.49
2023-11-16T20:33:34.404Z,5.42
2023-11-16T20:36:02.448Z,5.63
2023-11-16T20:38:29.502Z,5.54
2023-11-16T20:40:56.501Z,5.46
2023-11-16T20:43:25.301Z,5.31
2023-11-16T20:45:54.149Z,5.43
2023-11-16T20:48:21.953Z,5.67
2023-11-16T20:50:48.947Z,5.67
2023-11-16T20:53:16.080Z,5.75
2023-11-16T20:55:42.949Z,5.56
2023-11-16T20:58:09.960Z,5.46
2023-11-16T21:00:37.258Z,5.15
2023-11-16T21:03:04.385Z,4.71
2023-11-16T21:05:31.495Z,5.36
2023-11-16T21:07:58.581Z,5.59
2023-11-16T21:10:25.637Z,4.76
2023-11-16T21:12:52.569Z,4.44
2023-11-16T21:15:20.740Z,5.14
2023-11-16T21:17:47.798Z,5.36
2023-11-16T21:20:16.067Z,5.01
2023-11-16T21:22:44.557Z,5.25
2023-11-16T21:25:13.646Z,5.19
2023-11-16T21:27:41.230Z,5.29
2023-11-16T21:30:12.006Z,5.49
2023-11-16T21:32:43.289Z,5.30
2023-11-16T21:35:17.454Z,5.20
2023-11-16T21:37:46.978Z,5.46
2023-11-16T21:40:15.199Z,4.99
2023-11-16T21:42:42.773Z,5.42
2023-11-16T21:45:11.789Z,5.39
2023-11-16T21:47:40.233Z,5.02
2023-11-16T21:50:10.384Z,5.30
2023-11-16T21:52:40.680Z,4.89
2023-11-16T21:55:08.145Z,5.20
2023-11-16T21:57:35.458Z,5.26
2023-11-16T22:00:02.719Z,5.15
2023-11-16T22:02:29.602Z,4.53
2023-11-16T22:04:57.009Z,4.75
2023-11-16T22:07:24.110Z,4.79
2023-11-16T22:09:51.843Z,4.82
2023-11-16T22:12:20.090Z,4.82
2023-11-16T22:14:47.167Z,4.67
2023-11-16T22:17:14.071Z,4.76
2023-11-16T22:19:41.193Z,4.89
2023-11-16T22:22:08.215Z,4.92
2023-11-16T22:24:35.676Z,4.99
2023-11-16T22:27:02.841Z,4.86
2023-11-16T22:29:29.792Z,4.87
2023-11-16T22:31:56.838Z,5.09
2023-11-16T22:34:23.891Z,5.02
2023-11-16T22:36:50.804Z,4.96
2023-11-16T22:39:18.296Z,4.88
2023-11-16T22:41:45.547Z,4.91
2023-11-16T22:44:12.515Z,4.74
2023-11-16T22:49:06.563Z,4.66
2023-11-16T22:51:33.884Z,4.89
2023-11-16T22:54:01.117Z,4.53
2023-11-16T22:56:28.125Z,4.81
2023-11-16T22:58:58.194Z,4.42
2023-11-16T23:01:25.271Z,4.55
2023-11-16T23:03:53.978Z,4.38
2023-11-16T23:06:20.908Z,4.57
2023-11-16T23:08:49.083Z,3.82
2023-11-16T23:11:16.070Z,4.28
2023-11-16T23:13:43.155Z,4.68
2023-11-16T23:16:10.485Z,4.57
2023-11-16T23:18:37.465Z,4.66
2023-11-16T23:21:05.005Z,4.49
2023-11-16T23:23:32.056Z,4.47
2023-11-16T23:26:00.109Z,4.47
2023-11-16T23:28:27.911Z,4.80
2023-11-16T23:30:56.114Z,4.63
2023-11-16T23:33:23.140Z,4.69
2023-11-16T23:35:49.983Z,4.61
2023-11-16T23:38:17.311Z,4.80
2023-11-16T23:40:44.091Z,4.52
2023-11-16T23:43:11.160Z,4.92
2023-11-16T23:45:38.133Z,4.60
2023-11-16T23:48:05.311Z,4.80
2023-11-16T23:50:36.558Z,4.38
2023-11-16T23:53:04.497Z,4.14
2023-11-16T23:55:31.327Z,4.89
2023-11-16T23:57:58.216Z,5.00
